sensor_id;sensor_type;location;lat;lon;timestamp;pressure;altitude;pressure_sealevel;temperature;humidity
49341;BME280;35209;51.050;13.678;2022-12-18T00:03:18;101484.16;;;-8.31;89.76
49341;BME280;35209;51.050;13.678;2022-12-18T00:08:20;101486.56;;;-8.32;89.40
49341;BME280;35209;51.050;13.678;2022-12-18T00:13:22;101502.03;;;-8.18;86.92
49341;BME280;35209;51.050;13.678;2022-12-18T00:18:23;101506.22;;;-8.31;86.45
49341;BME280;35209;51.050;13.678;2022-12-18T00:23:25;101506.09;;;-8.46;87.01
49341;BME280;35209;51.050;13.678;2022-12-18T00:28:27;101499.16;;;-8.60;87.96
49341;BME280;35209;51.050;13.678;2022-12-18T00:33:30;101507.44;;;-8.76;89.48
49341;BME280;35209;51.050;13.678;2022-12-18T00:38:33;101512.97;;;-8.82;90.34
49341;BME280;35209;51.050;13.678;2022-12-18T00:43:36;101520.63;;;-8.82;90.47
49341;BME280;35209;51.050;13.678;2022-12-18T00:48:38;101529.72;;;-8.85;90.24
49341;BME280;35209;51.050;13.678;2022-12-18T00:53:41;101523.41;;;-8.91;90.39
49341;BME280;35209;51.050;13.678;2022-12-18T00:58:42;101520.13;;;-8.90;90.39
49341;BME280;35209;51.050;13.678;2022-12-18T01:03:44;101524.25;;;-8.67;90.32
49341;BME280;35209;51.050;13.678;2022-12-18T01:08:50;101533.00;;;-8.63;86.78
49341;BME280;35209;51.050;13.678;2022-12-18T01:13:53;101543.38;;;-8.85;86.91
49341;BME280;35209;51.050;13.678;2022-12-18T01:18:56;101543.69;;;-8.80;86.16
49341;BME280;35209;51.050;13.678;2022-12-18T01:23:57;101537.50;;;-8.96;86.61
49341;BME280;35209;51.050;13.678;2022-12-18T01:28:59;101546.03;;;-8.95;87.17
49341;BME280;35209;51.050;13.678;2022-12-18T01:34:04;101547.69;;;-8.96;88.01
49341;BME280;35209;51.050;13.678;2022-12-18T01:39:13;101546.91;;;-8.95;87.43
49341;BME280;35209;51.050;13.678;2022-12-18T01:49:49;101536.63;;;-9.08;88.52
49341;BME280;35209;51.050;13.678;2022-12-18T01:54:51;101543.84;;;-9.14;87.98
49341;BME280;35209;51.050;13.678;2022-12-18T01:59:59;101553.06;;;-9.16;88.10
49341;BME280;35209;51.050;13.678;2022-12-18T02:05:29;101558.25;;;-9.26;87.19
49341;BME280;35209;51.050;13.678;2022-12-18T02:16:13;101540.53;;;-9.13;83.87
49341;BME280;35209;51.050;13.678;2022-12-18T02:21:30;101545.66;;;-9.36;85.23
49341;BME280;35209;51.050;13.678;2022-12-18T02:26:37;101552.72;;;-9.32;85.33
49341;BME280;35209;51.050;13.678;2022-12-18T02:31:46;101567.00;;;-9.46;85.68
49341;BME280;35209;51.050;13.678;2022-12-18T02:36:51;101573.09;;;-9.56;86.46
49341;BME280;35209;51.050;13.678;2022-12-18T02:41:55;101567.66;;;-9.25;85.98
49341;BME280;35209;51.050;13.678;2022-12-18T02:46:58;101569.13;;;-9.41;84.37
49341;BME280;35209;51.050;13.678;2022-12-18T03:03:06;101569.84;;;-9.77;87.16
49341;BME280;35209;51.050;13.678;2022-12-18T03:13:28;101576.88;;;-9.51;84.13
49341;BME280;35209;51.050;13.678;2022-12-18T03:18:42;101573.38;;;-9.75;82.49
49341;BME280;35209;51.050;13.678;2022-12-18T03:23:48;101578.34;;;-10.00;84.66
49341;BME280;35209;51.050;13.678;2022-12-18T03:29:03;101584.16;;;-10.12;85.97
49341;BME280;35209;51.050;13.678;2022-12-18T03:34:19;101578.19;;;-10.01;85.50
49341;BME280;35209;51.050;13.678;2022-12-18T03:39:23;101587.81;;;-9.97;85.35
49341;BME280;35209;51.050;13.678;2022-12-18T03:44:37;101581.81;;;-10.09;85.66
49341;BME280;35209;51.050;13.678;2022-12-18T03:49:56;101578.53;;;-10.08;86.24
49341;BME280;35209;51.050;13.678;2022-12-18T03:55:05;101590.16;;;-10.00;85.76
49341;BME280;35209;51.050;13.678;2022-12-18T04:00:13;101592.03;;;-9.98;85.55
49341;BME280;35209;51.050;13.678;2022-12-18T04:05:32;101591.59;;;-9.92;85.19
49341;BME280;35209;51.050;13.678;2022-12-18T04:10:36;101601.72;;;-9.82;82.13
49341;BME280;35209;51.050;13.678;2022-12-18T04:15:38;101606.16;;;-10.13;83.70
49341;BME280;35209;51.050;13.678;2022-12-18T04:20:45;101610.81;;;-10.07;83.92
49341;BME280;35209;51.050;13.678;2022-12-18T04:25:47;101611.09;;;-10.26;85.00
49341;BME280;35209;51.050;13.678;2022-12-18T04:30:56;101605.47;;;-10.10;85.22
49341;BME280;35209;51.050;13.678;2022-12-18T04:35:58;101605.81;;;-10.06;83.66
49341;BME280;35209;51.050;13.678;2022-12-18T04:41:00;101614.28;;;-10.29;84.61
49341;BME280;35209;51.050;13.678;2022-12-18T04:46:04;101617.19;;;-10.24;84.93
49341;BME280;35209;51.050;13.678;2022-12-18T04:51:07;101626.88;;;-10.19;84.57
49341;BME280;35209;51.050;13.678;2022-12-18T04:56:11;101621.31;;;-10.03;83.50
49341;BME280;35209;51.050;13.678;2022-12-18T05:01:17;101612.13;;;-10.12;83.55
49341;BME280;35209;51.050;13.678;2022-12-18T05:06:19;101623.50;;;-10.41;84.66
49341;BME280;35209;51.050;13.678;2022-12-18T05:11:21;101615.00;;;-10.42;85.22
49341;BME280;35209;51.050;13.678;2022-12-18T05:16:23;101610.66;;;-10.21;84.11
49341;BME280;35209;51.050;13.678;2022-12-18T05:21:24;101612.34;;;-10.43;84.38
49341;BME280;35209;51.050;13.678;2022-12-18T05:26:26;101617.53;;;-10.42;84.54
49341;BME280;35209;51.050;13.678;2022-12-18T05:31:28;101616.66;;;-10.42;84.23
49341;BME280;35209;51.050;13.678;2022-12-18T05:36:36;101615.41;;;-10.47;85.21
49341;BME280;35209;51.050;13.678;2022-12-18T05:41:38;101609.97;;;-10.52;85.96
49341;BME280;35209;51.050;13.678;2022-12-18T05:46:39;101614.59;;;-10.58;85.73
49341;BME280;35209;51.050;13.678;2022-12-18T05:51:41;101621.56;;;-10.55;86.44
49341;BME280;35209;51.050;13.678;2022-12-18T05:56:43;101626.88;;;-10.52;86.74
49341;BME280;35209;51.050;13.678;2022-12-18T06:01:49;101636.75;;;-10.45;86.43
49341;BME280;35209;51.050;13.678;2022-12-18T06:06:51;101641.47;;;-10.50;86.18
49341;BME280;35209;51.050;13.678;2022-12-18T06:11:53;101644.44;;;-10.55;86.16
49341;BME280;35209;51.050;13.678;2022-12-18T06:16:55;101643.91;;;-10.51;85.40
49341;BME280;35209;51.050;13.678;2022-12-18T06:21:56;101656.00;;;-10.59;85.02
49341;BME280;35209;51.050;13.678;2022-12-18T06:27:00;101657.81;;;-10.58;84.31
49341;BME280;35209;51.050;13.678;2022-12-18T06:32:02;101656.25;;;-10.56;84.29
49341;BME280;35209;51.050;13.678;2022-12-18T06:37:04;101656.09;;;-10.47;83.34
49341;BME280;35209;51.050;13.678;2022-12-18T06:42:05;101658.13;;;-10.75;84.15
49341;BME280;35209;51.050;13.678;2022-12-18T06:47:07;101657.22;;;-10.76;84.38
49341;BME280;35209;51.050;13.678;2022-12-18T06:52:09;101666.31;;;-10.57;83.80
49341;BME280;35209;51.050;13.678;2022-12-18T06:57:11;101668.50;;;-10.72;83.91
49341;BME280;35209;51.050;13.678;2022-12-18T07:02:13;101685.72;;;-10.80;84.46
49341;BME280;35209;51.050;13.678;2022-12-18T07:07:15;101690.34;;;-10.64;84.04
49341;BME280;35209;51.050;13.678;2022-12-18T07:12:17;101684.16;;;-10.46;81.58
49341;BME280;35209;51.050;13.678;2022-12-18T07:17:19;101689.50;;;-10.85;83.13
49341;BME280;35209;51.050;13.678;2022-12-18T07:22:21;101684.31;;;-10.54;83.39
49341;BME280;35209;51.050;13.678;2022-12-18T07:27:23;101686.63;;;-10.57;82.24
49341;BME280;35209;51.050;13.678;2022-12-18T07:32:25;101704.75;;;-10.75;83.78
49341;BME280;35209;51.050;13.678;2022-12-18T07:37:26;101710.91;;;-10.61;84.46
49341;BME280;35209;51.050;13.678;2022-12-18T07:42:28;101703.66;;;-10.56;83.96
49341;BME280;35209;51.050;13.678;2022-12-18T07:47:36;101714.81;;;-10.54;84.45
49341;BME280;35209;51.050;13.678;2022-12-18T07:52:37;101725.34;;;-10.50;84.66
49341;BME280;35209;51.050;13.678;2022-12-18T07:57:39;101720.88;;;-10.42;85.02
49341;BME280;35209;51.050;13.678;2022-12-18T08:02:51;101722.63;;;-10.19;84.98
49341;BME280;35209;51.050;13.678;2022-12-18T08:07:54;101710.09;;;-10.06;85.18
49341;BME280;35209;51.050;13.678;2022-12-18T08:12:56;101702.09;;;-10.00;85.91
49341;BME280;35209;51.050;13.678;2022-12-18T08:18:05;101696.84;;;-9.80;85.97
49341;BME280;35209;51.050;13.678;2022-12-18T08:23:14;101690.22;;;-9.78;86.13
49341;BME280;35209;51.050;13.678;2022-12-18T08:28:17;101705.50;;;-9.78;86.06
49341;BME280;35209;51.050;13.678;2022-12-18T08:33:19;101703.84;;;-9.77;86.47
49341;BME280;35209;51.050;13.678;2022-12-18T08:38:20;101700.03;;;-9.60;86.77
49341;BME280;35209;51.050;13.678;2022-12-18T08:43:22;101697.97;;;-9.43;87.33
49341;BME280;35209;51.050;13.678;2022-12-18T08:48:43;101703.47;;;-9.03;88.34
49341;BME280;35209;51.050;13.678;2022-12-18T08:53:45;101702.91;;;-8.75;89.60
49341;BME280;35209;51.050;13.678;2022-12-18T08:58:47;101713.56;;;-8.57;90.53
49341;BME280;35209;51.050;13.678;2022-12-18T09:03:52;101716.69;;;-8.25;92.13
49341;BME280;35209;51.050;13.678;2022-12-18T09:08:54;101696.88;;;-8.04;91.38
49341;BME280;35209;51.050;13.678;2022-12-18T09:13:56;101711.38;;;-7.66;89.54
49341;BME280;35209;51.050;13.678;2022-12-18T09:18:59;101730.22;;;-7.14;88.80
49341;BME280;35209;51.050;13.678;2022-12-18T09:24:01;101743.53;;;-6.93;86.49
49341;BME280;35209;51.050;13.678;2022-12-18T09:29:04;101741.19;;;-6.77;86.48
49341;BME280;35209;51.050;13.678;2022-12-18T09:34:06;101737.94;;;-6.88;86.42
49341;BME280;35209;51.050;13.678;2022-12-18T09:39:07;101737.56;;;-6.54;86.09
49341;BME280;35209;51.050;13.678;2022-12-18T09:44:32;101730.69;;;-6.42;85.97
49341;BME280;35209;51.050;13.678;2022-12-18T09:49:49;101732.88;;;-6.06;85.53
49341;BME280;35209;51.050;13.678;2022-12-18T09:54:59;101720.25;;;-5.75;85.96
49341;BME280;35209;51.050;13.678;2022-12-18T10:05:17;101712.34;;;-5.50;83.94
49341;BME280;35209;51.050;13.678;2022-12-18T10:10:45;101695.47;;;-5.62;86.09
49341;BME280;35209;51.050;13.678;2022-12-18T10:16:26;101678.44;;;-5.46;86.21
49341;BME280;35209;51.050;13.678;2022-12-18T10:21:48;101673.94;;;-5.06;85.14
49341;BME280;35209;51.050;13.678;2022-12-18T10:26:56;101663.28;;;-4.83;84.88
49341;BME280;35209;51.050;13.678;2022-12-18T10:32:01;101656.03;;;-4.75;85.88
49341;BME280;35209;51.050;13.678;2022-12-18T10:37:06;101648.44;;;-4.73;85.40
49341;BME280;35209;51.050;13.678;2022-12-18T10:42:19;101632.09;;;-4.28;83.88
49341;BME280;35209;51.050;13.678;2022-12-18T10:47:21;101631.72;;;-4.19;82.17
49341;BME280;35209;51.050;13.678;2022-12-18T10:52:25;101629.81;;;-4.07;82.22
49341;BME280;35209;51.050;13.678;2022-12-18T10:57:33;101639.75;;;-3.97;82.79
49341;BME280;35209;51.050;13.678;2022-12-18T11:02:37;101636.13;;;-3.84;82.50
49341;BME280;35209;51.050;13.678;2022-12-18T11:07:49;101631.78;;;-3.00;76.52
49341;BME280;35209;51.050;13.678;2022-12-18T11:12:51;101624.59;;;-1.15;68.44
49341;BME280;35209;51.050;13.678;2022-12-18T11:17:53;101608.88;;;-0.57;64.53
49341;BME280;35209;51.050;13.678;2022-12-18T11:23:00;101605.28;;;0.58;60.66
49341;BME280;35209;51.050;13.678;2022-12-18T11:28:34;101600.41;;;0.67;59.36
49341;BME280;35209;51.050;13.678;2022-12-18T11:33:39;101606.81;;;1.05;57.74
49341;BME280;35209;51.050;13.678;2022-12-18T11:39:12;101605.44;;;-0.10;59.27
49341;BME280;35209;51.050;13.678;2022-12-18T11:44:25;101603.66;;;0.12;59.84
49341;BME280;35209;51.050;13.678;2022-12-18T11:49:35;101600.47;;;-0.52;61.17
49341;BME280;35209;51.050;13.678;2022-12-18T11:54:37;101605.13;;;-0.86;62.95
49341;BME280;35209;51.050;13.678;2022-12-18T12:00:09;101616.34;;;-1.48;65.23
49341;BME280;35209;51.050;13.678;2022-12-18T12:21:42;101631.41;;;-1.17;64.33
49341;BME280;35209;51.050;13.678;2022-12-18T12:32:11;101628.47;;;-2.06;67.88
49341;BME280;35209;51.050;13.678;2022-12-18T12:42:47;101657.56;;;-2.99;71.39
49341;BME280;35209;51.050;13.678;2022-12-18T12:48:18;101642.63;;;-3.06;72.28
49341;BME280;35209;51.050;13.678;2022-12-18T12:53:26;101624.81;;;-3.19;72.94
49341;BME280;35209;51.050;13.678;2022-12-18T12:58:41;101639.31;;;-3.21;73.06
49341;BME280;35209;51.050;13.678;2022-12-18T13:04:27;101632.16;;;-3.45;74.18
49341;BME280;35209;51.050;13.678;2022-12-18T13:09:34;101620.47;;;-3.38;73.44
49341;BME280;35209;51.050;13.678;2022-12-18T13:14:40;101615.50;;;-3.51;74.08
49341;BME280;35209;51.050;13.678;2022-12-18T13:19:42;101610.38;;;-3.51;74.31
49341;BME280;35209;51.050;13.678;2022-12-18T13:24:44;101628.50;;;-3.66;74.44
49341;BME280;35209;51.050;13.678;2022-12-18T13:29:46;101624.34;;;-3.46;74.54
49341;BME280;35209;51.050;13.678;2022-12-18T13:34:49;101625.69;;;-3.71;74.57
49341;BME280;35209;51.050;13.678;2022-12-18T13:51:27;101622.53;;;-3.65;75.52
49341;BME280;35209;51.050;13.678;2022-12-18T13:56:32;101614.28;;;-3.92;76.56
49341;BME280;35209;51.050;13.678;2022-12-18T14:01:34;101617.56;;;-3.95;76.92
49341;BME280;35209;51.050;13.678;2022-12-18T14:06:36;101617.81;;;-3.90;77.51
49341;BME280;35209;51.050;13.678;2022-12-18T14:11:38;101629.72;;;-4.25;78.46
49341;BME280;35209;51.050;13.678;2022-12-18T14:16:41;101619.69;;;-4.20;79.30
49341;BME280;35209;51.050;13.678;2022-12-18T14:21:49;101619.50;;;-4.23;79.96
49341;BME280;35209;51.050;13.678;2022-12-18T14:26:52;101608.00;;;-4.30;80.21
49341;BME280;35209;51.050;13.678;2022-12-18T14:32:13;101590.53;;;-4.37;81.22
49341;BME280;35209;51.050;13.678;2022-12-18T14:37:24;101590.56;;;-4.52;81.38
49341;BME280;35209;51.050;13.678;2022-12-18T14:42:27;101593.53;;;-4.61;81.65
49341;BME280;35209;51.050;13.678;2022-12-18T14:47:29;101588.00;;;-4.68;82.20
49341;BME280;35209;51.050;13.678;2022-12-18T14:52:31;101593.16;;;-4.83;82.55
49341;BME280;35209;51.050;13.678;2022-12-18T14:57:36;101597.50;;;-4.82;82.39
49341;BME280;35209;51.050;13.678;2022-12-18T15:02:39;101598.22;;;-4.85;82.38
49341;BME280;35209;51.050;13.678;2022-12-18T15:07:43;101593.53;;;-4.92;82.49
49341;BME280;35209;51.050;13.678;2022-12-18T15:13:05;101593.84;;;-5.02;83.75
49341;BME280;35209;51.050;13.678;2022-12-18T15:28:27;101583.13;;;-5.10;83.29
49341;BME280;35209;51.050;13.678;2022-12-18T15:33:33;101587.75;;;-5.19;83.48
49341;BME280;35209;51.050;13.678;2022-12-18T15:38:35;101570.75;;;-5.02;83.44
49341;BME280;35209;51.050;13.678;2022-12-18T15:43:37;101564.84;;;-5.16;83.21
49341;BME280;35209;51.050;13.678;2022-12-18T15:48:42;101581.94;;;-5.16;83.50
49341;BME280;35209;51.050;13.678;2022-12-18T15:53:44;101582.03;;;-5.29;83.78
49341;BME280;35209;51.050;13.678;2022-12-18T15:58:46;101577.06;;;-5.12;82.48
49341;BME280;35209;51.050;13.678;2022-12-18T16:03:48;101564.25;;;-5.12;83.30
49341;BME280;35209;51.050;13.678;2022-12-18T16:08:50;101563.81;;;-5.34;83.63
49341;BME280;35209;51.050;13.678;2022-12-18T16:13:52;101560.22;;;-5.52;84.89
49341;BME280;35209;51.050;13.678;2022-12-18T16:18:54;101554.84;;;-5.57;85.65
49341;BME280;35209;51.050;13.678;2022-12-18T16:23:56;101562.16;;;-5.34;85.98
49341;BME280;35209;51.050;13.678;2022-12-18T16:28:57;101561.81;;;-5.40;84.99
49341;BME280;35209;51.050;13.678;2022-12-18T16:34:19;101556.13;;;-5.34;85.42
49341;BME280;35209;51.050;13.678;2022-12-18T16:39:29;101562.16;;;-5.34;84.36
49341;BME280;35209;51.050;13.678;2022-12-18T16:44:35;101553.50;;;-5.50;85.43
49341;BME280;35209;51.050;13.678;2022-12-18T16:49:37;101547.47;;;-5.36;85.98
49341;BME280;35209;51.050;13.678;2022-12-18T16:54:40;101552.59;;;-5.21;84.92
49341;BME280;35209;51.050;13.678;2022-12-18T16:59:42;101546.88;;;-5.47;85.01
49341;BME280;35209;51.050;13.678;2022-12-18T17:04:45;101547.09;;;-5.27;85.54
49341;BME280;35209;51.050;13.678;2022-12-18T17:09:47;101539.66;;;-5.23;85.03
49341;BME280;35209;51.050;13.678;2022-12-18T17:14:51;101537.53;;;-5.15;84.60
49341;BME280;35209;51.050;13.678;2022-12-18T17:19:53;101527.94;;;-5.34;85.84
49341;BME280;35209;51.050;13.678;2022-12-18T17:24:57;101530.88;;;-5.43;86.89
49341;BME280;35209;51.050;13.678;2022-12-18T17:29:59;101532.28;;;-5.33;86.08
49341;BME280;35209;51.050;13.678;2022-12-18T17:35:01;101521.50;;;-5.42;85.75
49341;BME280;35209;51.050;13.678;2022-12-18T17:40:09;101526.72;;;-5.55;87.44
49341;BME280;35209;51.050;13.678;2022-12-18T17:45:11;101529.78;;;-5.17;86.14
49341;BME280;35209;51.050;13.678;2022-12-18T17:50:12;101512.31;;;-5.39;87.04
49341;BME280;35209;51.050;13.678;2022-12-18T17:55:14;101504.59;;;-5.24;86.15
49341;BME280;35209;51.050;13.678;2022-12-18T18:00:16;101504.47;;;-5.11;86.04
49341;BME280;35209;51.050;13.678;2022-12-18T18:05:19;101509.09;;;-5.20;85.84
49341;BME280;35209;51.050;13.678;2022-12-18T18:10:22;101504.13;;;-5.48;87.50
49341;BME280;35209;51.050;13.678;2022-12-18T18:15:24;101500.63;;;-5.34;86.95
49341;BME280;35209;51.050;13.678;2022-12-18T18:20:25;101495.59;;;-5.32;87.75
49341;BME280;35209;51.050;13.678;2022-12-18T18:25:35;101490.94;;;-5.54;88.90
49341;BME280;35209;51.050;13.678;2022-12-18T18:30:38;101490.84;;;-5.10;87.58
49341;BME280;35209;51.050;13.678;2022-12-18T18:35:42;101479.25;;;-5.03;87.15
49341;BME280;35209;51.050;13.678;2022-12-18T18:41:00;101477.88;;;-4.96;86.94
49341;BME280;35209;51.050;13.678;2022-12-18T18:46:04;101471.94;;;-5.12;87.24
49341;BME280;35209;51.050;13.678;2022-12-18T18:51:09;101460.09;;;-4.93;86.18
49341;BME280;35209;51.050;13.678;2022-12-18T18:56:15;101471.66;;;-4.85;85.82
49341;BME280;35209;51.050;13.678;2022-12-18T19:01:37;101445.03;;;-5.03;86.30
49341;BME280;35209;51.050;13.678;2022-12-18T19:06:39;101439.19;;;-4.85;85.64
49341;BME280;35209;51.050;13.678;2022-12-18T19:11:41;101437.97;;;-4.75;84.86
49341;BME280;35209;51.050;13.678;2022-12-18T19:17:03;101428.34;;;-4.79;84.57
49341;BME280;35209;51.050;13.678;2022-12-18T19:22:06;101417.47;;;-4.75;84.49
49341;BME280;35209;51.050;13.678;2022-12-18T19:27:08;101414.16;;;-4.56;83.76
49341;BME280;35209;51.050;13.678;2022-12-18T19:32:10;101400.00;;;-4.98;84.78
49341;BME280;35209;51.050;13.678;2022-12-18T19:37:12;101400.25;;;-4.94;85.96
49341;BME280;35209;51.050;13.678;2022-12-18T19:42:14;101375.38;;;-4.78;84.40
49341;BME280;35209;51.050;13.678;2022-12-18T19:47:23;101369.94;;;-4.68;83.78
49341;BME280;35209;51.050;13.678;2022-12-18T19:52:26;101386.09;;;-4.69;83.87
49341;BME280;35209;51.050;13.678;2022-12-18T19:57:27;101368.41;;;-4.65;83.78
49341;BME280;35209;51.050;13.678;2022-12-18T20:02:29;101362.13;;;-4.70;83.86
49341;BME280;35209;51.050;13.678;2022-12-18T20:07:32;101358.66;;;-4.54;83.07
49341;BME280;35209;51.050;13.678;2022-12-18T20:12:34;101363.50;;;-4.60;82.95
49341;BME280;35209;51.050;13.678;2022-12-18T20:17:38;101361.34;;;-4.69;83.02
49341;BME280;35209;51.050;13.678;2022-12-18T20:22:40;101370.91;;;-4.48;82.12
49341;BME280;35209;51.050;13.678;2022-12-18T20:27:45;101382.00;;;-4.49;83.07
49341;BME280;35209;51.050;13.678;2022-12-18T20:32:47;101361.66;;;-4.63;82.74
49341;BME280;35209;51.050;13.678;2022-12-18T20:37:49;101362.94;;;-4.54;82.17
49341;BME280;35209;51.050;13.678;2022-12-18T20:42:52;101361.66;;;-4.63;82.79
49341;BME280;35209;51.050;13.678;2022-12-18T20:47:56;101330.06;;;-4.62;83.19
49341;BME280;35209;51.050;13.678;2022-12-18T20:52:59;101328.31;;;-4.45;82.04
49341;BME280;35209;51.050;13.678;2022-12-18T20:58:01;101333.25;;;-4.49;82.39
49341;BME280;35209;51.050;13.678;2022-12-18T21:03:03;101324.47;;;-4.37;81.08
49341;BME280;35209;51.050;13.678;2022-12-18T21:08:05;101328.81;;;-4.52;81.68
49341;BME280;35209;51.050;13.678;2022-12-18T21:13:07;101327.75;;;-4.39;81.66
49341;BME280;35209;51.050;13.678;2022-12-18T21:18:10;101324.69;;;-4.32;80.78
49341;BME280;35209;51.050;13.678;2022-12-18T21:23:12;101324.28;;;-4.40;81.10
49341;BME280;35209;51.050;13.678;2022-12-18T21:28:17;101313.00;;;-4.25;80.07
49341;BME280;35209;51.050;13.678;2022-12-18T21:33:19;101317.66;;;-4.18;79.31
49341;BME280;35209;51.050;13.678;2022-12-18T21:38:20;101323.06;;;-4.12;78.56
49341;BME280;35209;51.050;13.678;2022-12-18T21:43:22;101319.41;;;-4.17;78.49
49341;BME280;35209;51.050;13.678;2022-12-18T21:48:43;101317.81;;;-4.15;78.69
49341;BME280;35209;51.050;13.678;2022-12-18T21:53:44;101320.38;;;-4.33;79.66
49341;BME280;35209;51.050;13.678;2022-12-18T21:58:49;101314.13;;;-4.20;79.17
49341;BME280;35209;51.050;13.678;2022-12-18T22:03:58;101301.41;;;-4.17;78.69
49341;BME280;35209;51.050;13.678;2022-12-18T22:09:00;101300.75;;;-4.13;79.22
49341;BME280;35209;51.050;13.678;2022-12-18T22:14:01;101306.00;;;-4.12;78.16
49341;BME280;35209;51.050;13.678;2022-12-18T22:19:04;101301.19;;;-4.22;79.01
49341;BME280;35209;51.050;13.678;2022-12-18T22:24:22;101294.38;;;-4.21;79.00
49341;BME280;35209;51.050;13.678;2022-12-18T22:29:24;101287.88;;;-4.15;79.02
49341;BME280;35209;51.050;13.678;2022-12-18T22:34:46;101277.06;;;-4.25;79.53
49341;BME280;35209;51.050;13.678;2022-12-18T22:39:47;101269.03;;;-4.33;80.30
49341;BME280;35209;51.050;13.678;2022-12-18T22:44:49;101266.06;;;-4.23;79.63
49341;BME280;35209;51.050;13.678;2022-12-18T22:49:51;101265.25;;;-4.22;80.03
49341;BME280;35209;51.050;13.678;2022-12-18T22:54:52;101246.25;;;-4.25;80.24
49341;BME280;35209;51.050;13.678;2022-12-18T22:59:55;101239.16;;;-4.31;79.98
49341;BME280;35209;51.050;13.678;2022-12-18T23:04:56;101233.78;;;-4.18;79.31
49341;BME280;35209;51.050;13.678;2022-12-18T23:09:58;101231.28;;;-4.16;78.66
49341;BME280;35209;51.050;13.678;2022-12-18T23:15:02;101233.78;;;-4.18;78.12
49341;BME280;35209;51.050;13.678;2022-12-18T23:20:05;101205.94;;;-4.28;78.42
49341;BME280;35209;51.050;13.678;2022-12-18T23:25:09;101197.94;;;-4.34;77.81
49341;BME280;35209;51.050;13.678;2022-12-18T23:30:11;101197.06;;;-4.35;78.51
49341;BME280;35209;51.050;13.678;2022-12-18T23:35:13;101183.66;;;-4.29;78.24
49341;BME280;35209;51.050;13.678;2022-12-18T23:40:16;101175.38;;;-4.41;79.21
49341;BME280;35209;51.050;13.678;2022-12-18T23:45:18;101165.00;;;-4.43;78.90
49341;BME280;35209;51.050;13.678;2022-12-18T23:50:20;101148.44;;;-4.32;78.09
49341;BME280;35209;51.050;13.678;2022-12-18T23:55:30;101148.22;;;-4.36;78.61
